createdAt,value
2018-01-16T00:01:15.042Z,1.83
2018-01-16T00:03:42.509Z,1.70
2018-01-16T00:06:09.965Z,1.70
2018-01-16T00:08:37.437Z,2.43
2018-01-16T00:11:04.913Z,1.90
2018-01-16T00:13:33.154Z,1.83
2018-01-16T00:16:00.605Z,2.17
2018-01-16T00:18:28.083Z,1.80
2018-01-16T00:20:55.554Z,2.20
2018-01-16T00:23:23.797Z,2.13
2018-01-16T00:25:51.370Z,2.10
2018-01-16T00:28:18.845Z,2.57
2018-01-16T00:30:47.069Z,1.73
2018-01-16T00:33:14.550Z,1.90
2018-01-16T00:35:43.517Z,3.30
2018-01-16T00:38:10.973Z,2.03
2018-01-16T00:40:38.523Z,1.50
2018-01-16T00:43:05.986Z,2.13
2018-01-16T00:45:33.466Z,2.27
2018-01-16T00:48:00.949Z,2.10
2018-01-16T00:50:28.415Z,2.17
2018-01-16T00:52:56.662Z,2.60
2018-01-16T00:55:24.142Z,2.50
2018-01-16T00:57:52.366Z,1.70
2018-01-16T01:00:19.822Z,2.60
2018-01-16T01:02:47.298Z,2.43
2018-01-16T01:05:14.753Z,3.10
2018-01-16T01:07:42.230Z,2.43
2018-01-16T01:10:09.717Z,3.47
2018-01-16T01:12:37.184Z,3.80
2018-01-16T01:15:04.652Z,4.80
2018-01-16T01:17:32.110Z,3.90
2018-01-16T01:19:59.590Z,4.10
2018-01-16T01:22:27.053Z,4.17
2018-01-16T01:24:54.579Z,3.97
2018-01-16T01:27:22.022Z,2.90
2018-01-16T01:29:49.506Z,3.43
2018-01-16T01:32:16.993Z,4.20
2018-01-16T01:34:44.454Z,3.20
2018-01-16T01:37:11.933Z,3.40
2018-01-16T01:39:39.399Z,3.73
2018-01-16T01:42:06.879Z,3.73
2018-01-16T01:44:34.357Z,3.60
2018-01-16T01:47:01.821Z,3.07
2018-01-16T01:49:29.302Z,3.20
2018-01-16T01:51:57.521Z,2.90
2018-01-16T01:54:24.977Z,2.83
2018-01-16T01:56:52.446Z,3.00
2018-01-16T01:59:19.905Z,3.00
2018-01-16T02:01:47.373Z,3.30
2018-01-16T02:04:14.858Z,3.57
2018-01-16T02:06:42.306Z,3.37
2018-01-16T02:09:09.853Z,3.20
2018-01-16T02:11:37.333Z,5.63
2018-01-16T02:14:05.558Z,3.90
2018-01-16T02:16:33.022Z,3.37
2018-01-16T02:19:00.491Z,2.80
2018-01-16T02:21:27.942Z,2.80
2018-01-16T02:23:55.420Z,2.97
2018-01-16T02:26:22.882Z,2.90
2018-01-16T02:28:50.354Z,3.73
2018-01-16T02:31:18.599Z,2.87
2018-01-16T02:33:46.834Z,2.70
2018-01-16T02:36:14.318Z,2.43
2018-01-16T02:38:41.785Z,2.70
2018-01-16T02:41:10.745Z,2.60
2018-01-16T02:43:38.233Z,3.07
2018-01-16T02:46:05.713Z,2.67
2018-01-16T02:48:37.421Z,2.20
2018-01-16T02:51:04.881Z,2.80
2018-01-16T02:53:32.377Z,2.93
2018-01-16T02:56:00.622Z,3.00
2018-01-16T02:58:28.082Z,3.00
2018-01-16T03:00:55.562Z,2.70
2018-01-16T03:03:23.013Z,2.73
2018-01-16T03:05:50.481Z,3.00
2018-01-16T03:08:18.728Z,2.90
2018-01-16T03:10:46.198Z,2.60
2018-01-16T03:13:13.670Z,2.90
2018-01-16T03:15:41.893Z,2.77
2018-01-16T03:18:09.368Z,2.80
2018-01-16T03:20:36.837Z,3.03
2018-01-16T03:23:04.316Z,3.00
2018-01-16T03:25:31.756Z,2.13
2018-01-16T03:27:59.243Z,2.93
2018-01-16T03:30:27.462Z,3.37
2018-01-16T03:32:54.948Z,3.20
2018-01-16T03:35:22.394Z,3.70
2018-01-16T03:37:50.645Z,4.03
2018-01-16T03:40:18.098Z,3.87
2018-01-16T03:42:45.557Z,3.30
2018-01-16T03:45:13.028Z,4.03
2018-01-16T03:47:40.489Z,3.27
2018-01-16T03:50:08.019Z,3.63
2018-01-16T03:52:35.513Z,4.43
2018-01-16T03:55:03.757Z,2.20
2018-01-16T03:57:31.241Z,2.73
2018-01-16T03:59:58.734Z,3.37
2018-01-16T04:02:26.213Z,3.70
2018-01-16T04:04:53.733Z,3.70
2018-01-16T04:07:21.165Z,5.10
2018-01-16T04:09:48.630Z,3.73
2018-01-16T04:12:16.093Z,2.67
2018-01-16T04:14:43.553Z,4.30
2018-01-16T04:17:11.026Z,3.00
2018-01-16T04:19:39.262Z,2.90
2018-01-16T04:22:06.727Z,2.70
2018-01-16T04:24:34.193Z,2.73
2018-01-16T04:27:01.665Z,3.57
2018-01-16T04:29:29.902Z,3.00
2018-01-16T04:31:57.378Z,2.90
2018-01-16T04:34:24.933Z,3.77
2018-01-16T04:36:52.394Z,2.80
2018-01-16T04:39:20.637Z,3.40
2018-01-16T04:41:48.124Z,2.77
2018-01-16T04:44:15.581Z,2.47
2018-01-16T04:46:43.826Z,2.70
2018-01-16T04:49:11.363Z,2.53
2018-01-16T04:51:38.809Z,2.50
2018-01-16T04:54:06.285Z,3.60
2018-01-16T04:56:33.757Z,2.77
2018-01-16T04:59:01.221Z,2.60
2018-01-16T05:01:28.681Z,2.50
2018-01-16T05:03:56.935Z,3.07
2018-01-16T05:06:24.385Z,2.20
2018-01-16T05:08:51.857Z,2.60
2018-01-16T05:11:19.333Z,2.20
2018-01-16T05:13:46.805Z,3.37
2018-01-16T05:16:15.042Z,2.67
2018-01-16T05:18:42.493Z,2.00
2018-01-16T05:21:09.966Z,2.80
2018-01-16T05:23:37.427Z,2.40
2018-01-16T05:26:05.005Z,2.50
2018-01-16T05:28:33.274Z,2.10
2018-01-16T05:31:01.505Z,2.57
2018-01-16T05:33:28.977Z,2.60
2018-01-16T05:35:56.514Z,2.80
2018-01-16T05:38:23.978Z,2.00
2018-01-16T05:40:51.451Z,2.50
2018-01-16T05:43:18.909Z,2.00
2018-01-16T05:45:46.386Z,2.27
2018-01-16T05:48:14.614Z,2.50
2018-01-16T05:50:42.086Z,2.23
2018-01-16T05:53:09.550Z,2.67
2018-01-16T05:55:37.013Z,2.73
2018-01-16T05:58:05.262Z,2.23
2018-01-16T06:00:32.713Z,2.17
2018-01-16T06:03:00.194Z,2.20
2018-01-16T06:05:27.666Z,2.57
2018-01-16T06:07:55.141Z,2.50
2018-01-16T06:10:23.369Z,2.47
2018-01-16T06:12:51.026Z,2.70
2018-01-16T06:15:18.506Z,3.03
2018-01-16T06:17:45.974Z,2.53
2018-01-16T06:20:13.431Z,2.40
2018-01-16T06:22:40.993Z,2.30
2018-01-16T06:25:08.461Z,3.23
2018-01-16T06:27:36.690Z,2.80
2018-01-16T06:30:04.154Z,2.83
2018-01-16T06:32:31.629Z,2.87
2018-01-16T06:34:59.082Z,2.40
2018-01-16T06:37:26.549Z,2.20
2018-01-16T06:39:54.035Z,2.00
2018-01-16T06:42:22.242Z,2.50
2018-01-16T06:44:49.698Z,2.07
2018-01-16T06:47:17.170Z,2.90
2018-01-16T06:49:44.642Z,2.53
2018-01-16T06:52:12.209Z,2.40
2018-01-16T06:54:41.148Z,2.47
2018-01-16T06:57:08.649Z,3.03
2018-01-16T06:59:36.117Z,3.30
2018-01-16T07:02:04.374Z,2.60
2018-01-16T07:04:31.825Z,2.40
2018-01-16T07:06:59.302Z,3.30
2018-01-16T07:09:26.838Z,3.57
2018-01-16T07:11:54.294Z,2.53
2018-01-16T07:14:21.769Z,4.07
2018-01-16T07:16:49.233Z,3.07
2018-01-16T07:19:16.713Z,2.30
2018-01-16T07:21:44.938Z,2.43
2018-01-16T07:24:12.394Z,2.40
2018-01-16T07:26:39.870Z,2.57
2018-01-16T07:29:07.330Z,2.90
2018-01-16T07:31:34.826Z,3.23
2018-01-16T07:34:02.298Z,2.53
2018-01-16T07:36:29.790Z,2.40
2018-01-16T07:38:57.238Z,3.40
2018-01-16T07:41:24.703Z,3.03
2018-01-16T07:43:53.693Z,3.13
2018-01-16T07:46:21.153Z,3.00
2018-01-16T07:48:48.606Z,2.50
2018-01-16T07:51:16.102Z,2.67
2018-01-16T07:53:43.566Z,2.60
2018-01-16T07:56:11.046Z,3.23
2018-01-16T07:58:38.513Z,3.73
2018-01-16T08:01:05.969Z,2.57
2018-01-16T08:03:33.444Z,2.03
2018-01-16T08:06:02.427Z,3.50
2018-01-16T08:08:29.901Z,2.90
2018-01-16T08:10:57.345Z,2.97
2018-01-16T08:13:24.813Z,2.63
2018-01-16T08:15:52.277Z,3.90
2018-01-16T08:18:19.745Z,2.73
2018-01-16T08:20:47.983Z,2.07
2018-01-16T08:23:15.451Z,3.20
2018-01-16T08:25:42.928Z,3.27
2018-01-16T08:28:11.146Z,2.63
2018-01-16T08:30:38.617Z,2.63
2018-01-16T08:33:06.085Z,2.47
2018-01-16T08:35:33.574Z,2.73
2018-01-16T08:38:01.022Z,2.60
2018-01-16T08:40:28.500Z,3.20
2018-01-16T08:42:56.730Z,3.17
2018-01-16T08:45:24.194Z,2.90
2018-01-16T08:47:51.673Z,3.87
2018-01-16T08:50:19.125Z,3.30
2018-01-16T08:52:46.581Z,2.67
2018-01-16T08:55:14.126Z,2.27
2018-01-16T08:57:41.605Z,1.80
2018-01-16T09:00:09.841Z,2.43
2018-01-16T09:02:37.310Z,2.03
2018-01-16T09:05:04.777Z,2.00
2018-01-16T09:07:33.739Z,2.43
2018-01-16T09:10:01.219Z,2.43
2018-01-16T09:12:28.686Z,3.10
2018-01-16T09:14:56.158Z,3.27
2018-01-16T09:17:24.390Z,3.50
2018-01-16T09:19:51.850Z,3.63
2018-01-16T09:22:19.318Z,3.10
2018-01-16T09:24:46.790Z,2.57
2018-01-16T09:27:15.033Z,2.70
2018-01-16T09:29:42.498Z,2.27
2018-01-16T09:32:10.000Z,1.67
2018-01-16T09:34:37.429Z,1.20
2018-01-16T09:37:05.681Z,1.10
2018-01-16T09:39:33.210Z,1.07
2018-01-16T09:42:00.769Z,1.10
2018-01-16T09:44:28.242Z,1.10
2018-01-16T09:46:55.689Z,1.30
2018-01-16T09:49:23.138Z,1.20
2018-01-16T09:51:50.618Z,1.40
2018-01-16T09:54:18.098Z,1.60
2018-01-16T09:56:45.566Z,1.63
2018-01-16T09:59:13.798Z,1.43
2018-01-16T10:01:41.266Z,1.80
2018-01-16T10:04:08.742Z,2.47
2018-01-16T10:06:36.266Z,1.20
2018-01-16T10:09:03.714Z,2.03
2018-01-16T10:11:31.181Z,1.60
2018-01-16T10:13:58.668Z,1.33
2018-01-16T10:16:26.142Z,1.70
2018-01-16T10:18:54.378Z,1.70
2018-01-16T10:21:21.846Z,1.87
2018-01-16T10:23:50.069Z,2.03
2018-01-16T10:26:17.541Z,2.13
2018-01-16T10:28:45.013Z,1.80
2018-01-16T10:31:12.481Z,1.70
2018-01-16T10:33:39.940Z,2.07
2018-01-16T10:36:07.413Z,2.00
2018-01-16T10:38:34.868Z,1.93
2018-01-16T10:41:02.337Z,2.00
2018-01-16T10:43:30.558Z,2.10
2018-01-16T10:45:58.033Z,2.10
2018-01-16T10:48:25.493Z,2.20
2018-01-16T10:50:52.946Z,2.27
2018-01-16T10:53:20.430Z,1.93
2018-01-16T10:55:47.889Z,1.60
2018-01-16T10:58:16.114Z,2.20
2018-01-16T11:00:43.581Z,1.70
2018-01-16T11:03:11.062Z,1.80
2018-01-16T11:05:38.532Z,2.17
2018-01-16T11:08:06.765Z,2.50
2018-01-16T11:10:34.214Z,1.90
2018-01-16T11:13:01.726Z,2.13
2018-01-16T11:15:29.948Z,1.83
2018-01-16T11:17:57.415Z,1.83
2018-01-16T11:20:24.886Z,2.27
2018-01-16T11:22:52.354Z,2.10
2018-01-16T11:25:19.801Z,2.83
2018-01-16T11:27:47.265Z,2.70
2018-01-16T11:30:14.759Z,2.80
2018-01-16T11:32:43.001Z,2.90
2018-01-16T11:35:10.454Z,3.50
2018-01-16T11:37:37.915Z,3.20
2018-01-16T11:40:05.386Z,3.63
2018-01-16T11:42:33.605Z,2.50
2018-01-16T11:45:01.086Z,2.47
2018-01-16T11:47:28.546Z,2.50
2018-01-16T11:49:56.014Z,2.60
2018-01-16T11:52:23.485Z,2.43
2018-01-16T11:54:51.725Z,2.70
2018-01-16T11:57:19.197Z,2.80
2018-01-16T11:59:46.658Z,3.07
2018-01-16T12:02:14.137Z,3.63
2018-01-16T12:04:42.354Z,3.40
2018-01-16T12:07:09.846Z,3.07
2018-01-16T12:09:37.306Z,3.50
2018-01-16T12:12:04.778Z,4.50
2018-01-16T12:14:33.018Z,4.20
2018-01-16T12:17:00.481Z,4.40
2018-01-16T12:19:27.938Z,3.27
2018-01-16T12:21:55.454Z,3.57
2018-01-16T12:24:22.929Z,4.00
2018-01-16T12:26:50.382Z,3.90
2018-01-16T12:29:17.877Z,3.47
2018-01-16T12:31:46.100Z,3.47
2018-01-16T12:34:13.579Z,3.70
2018-01-16T12:36:41.038Z,3.50
2018-01-16T12:39:08.527Z,3.30
2018-01-16T12:41:36.754Z,3.10
2018-01-16T12:44:04.224Z,3.27
2018-01-16T12:46:31.704Z,3.13
2018-01-16T12:48:59.550Z,2.63
2018-01-16T12:51:27.013Z,3.20
2018-01-16T12:53:54.478Z,3.37
2018-01-16T12:56:21.935Z,3.43
2018-01-16T12:58:49.407Z,2.90
2018-01-16T13:01:17.634Z,2.87
2018-01-16T13:03:45.090Z,2.60
2018-01-16T13:06:12.561Z,2.37
2018-01-16T13:08:40.034Z,1.90
2018-01-16T13:11:07.509Z,1.80
2018-01-16T13:13:34.958Z,1.70
2018-01-16T13:16:02.438Z,1.73
2018-01-16T13:18:29.905Z,1.63
2018-01-16T13:20:57.374Z,1.80
2018-01-16T13:23:24.830Z,1.30
2018-01-16T13:25:52.299Z,1.90
2018-01-16T13:28:19.754Z,1.60
2018-01-16T13:30:47.212Z,1.70
2018-01-16T13:33:14.673Z,2.00
2018-01-16T13:35:42.133Z,1.80
2018-01-16T13:38:09.614Z,2.03
2018-01-16T13:40:37.094Z,1.70
2018-01-16T13:43:05.305Z,1.70
2018-01-16T13:45:32.773Z,1.90
2018-01-16T13:48:00.242Z,2.33
2018-01-16T13:50:27.701Z,2.40
2018-01-16T13:52:55.189Z,2.20
2018-01-16T13:55:23.412Z,1.80
2018-01-16T13:57:50.898Z,1.87
2018-01-16T14:00:18.358Z,2.80
2018-01-16T14:02:45.835Z,1.90
2018-01-16T14:05:14.073Z,2.20
2018-01-16T14:07:41.542Z,2.00
2018-01-16T14:10:09.011Z,2.47
2018-01-16T14:12:36.481Z,2.63
2018-01-16T14:15:04.721Z,2.33
2018-01-16T14:17:32.181Z,2.27
2018-01-16T14:19:59.657Z,2.30
2018-01-16T14:22:27.881Z,2.07
2018-01-16T14:24:55.361Z,2.50
2018-01-16T14:27:22.822Z,1.27
2018-01-16T14:29:50.309Z,1.67
2018-01-16T14:32:18.546Z,1.60
2018-01-16T14:34:46.010Z,1.37
2018-01-16T14:37:13.486Z,1.40
2018-01-16T14:39:40.953Z,1.57
2018-01-16T14:42:09.192Z,1.70
2018-01-16T14:44:36.677Z,1.83
2018-01-16T14:47:04.135Z,2.00
2018-01-16T14:49:32.373Z,1.10
2018-01-16T14:51:59.830Z,1.73
2018-01-16T14:54:27.307Z,1.30
2018-01-16T14:56:54.763Z,1.60
2018-01-16T14:59:22.232Z,1.93
2018-01-16T15:01:49.704Z,2.10
2018-01-16T15:04:17.926Z,1.50
2018-01-16T15:06:45.383Z,2.27
2018-01-16T15:09:12.852Z,3.23
2018-01-16T15:11:40.333Z,1.43
2018-01-16T15:14:07.832Z,1.70
2018-01-16T15:16:35.278Z,2.30
2018-01-16T15:19:02.766Z,1.80
2018-01-16T15:21:30.233Z,1.80
2018-01-16T15:23:58.658Z,2.50
2018-01-16T15:26:26.154Z,1.57
2018-01-16T15:28:53.589Z,1.30
2018-01-16T15:31:21.071Z,1.37
2018-01-16T15:33:48.541Z,1.67
2018-01-16T15:36:16.001Z,1.50
2018-01-16T15:38:44.229Z,1.57
2018-01-16T15:41:11.702Z,1.30
2018-01-16T15:43:39.158Z,1.93
2018-01-16T15:46:06.639Z,1.30
2018-01-16T15:48:34.097Z,2.10
2018-01-16T15:51:01.554Z,1.57
2018-01-16T15:53:29.039Z,3.93
2018-01-16T15:55:57.263Z,1.87
2018-01-16T15:58:24.738Z,2.70
2018-01-16T16:00:52.194Z,2.60
2018-01-16T16:03:19.661Z,2.83
2018-01-16T16:05:47.130Z,1.80
2018-01-16T16:08:14.612Z,2.53
2018-01-16T16:10:42.863Z,2.27
2018-01-16T16:13:10.361Z,2.80
2018-01-16T16:15:37.842Z,2.53
2018-01-16T16:18:05.305Z,1.57
2018-01-16T16:20:32.780Z,2.60
2018-01-16T16:23:01.749Z,2.00
2018-01-16T16:25:29.234Z,2.57
2018-01-16T16:27:56.699Z,2.83
2018-01-16T16:30:24.919Z,1.93
2018-01-16T16:32:52.394Z,1.70
2018-01-16T16:35:19.853Z,1.63
2018-01-16T16:37:47.334Z,1.83
2018-01-16T16:40:14.801Z,2.37
2018-01-16T16:42:42.299Z,1.93
2018-01-16T16:45:09.745Z,1.80
2018-01-16T16:47:37.201Z,1.80
2018-01-16T16:50:04.696Z,2.10
2018-01-16T16:52:32.160Z,2.57
2018-01-16T16:54:59.686Z,1.90
2018-01-16T16:57:27.142Z,2.40
2018-01-16T16:59:54.604Z,6.07
2018-01-16T17:02:22.078Z,6.83
2018-01-16T17:04:49.546Z,3.07
2018-01-16T17:07:17.037Z,1.90
2018-01-16T17:09:46.049Z,2.33
2018-01-16T17:12:13.501Z,2.90
2018-01-16T17:14:40.987Z,3.53
2018-01-16T17:17:08.446Z,2.20
2018-01-16T17:19:35.930Z,3.13
2018-01-16T17:22:03.403Z,2.73
2018-01-16T17:24:30.871Z,2.40
2018-01-16T17:26:59.117Z,3.47
2018-01-16T17:29:26.597Z,2.43
2018-01-16T17:31:54.818Z,3.10
2018-01-16T17:34:22.277Z,3.10
2018-01-16T17:36:49.758Z,2.80
2018-01-16T17:39:17.982Z,2.87
2018-01-16T17:41:45.462Z,3.50
2018-01-16T17:44:12.917Z,3.30
2018-01-16T17:46:40.414Z,5.70
2018-01-16T17:49:07.864Z,4.97
2018-01-16T17:51:35.345Z,4.10
2018-01-16T17:54:02.840Z,5.53
2018-01-16T17:56:30.307Z,5.80
2018-01-16T17:58:57.788Z,5.60
2018-01-16T18:01:26.756Z,4.30
2018-01-16T18:03:54.217Z,5.60
2018-01-16T18:06:21.684Z,5.60
2018-01-16T18:08:49.165Z,6.03
2018-01-16T18:11:17.391Z,4.70
2018-01-16T18:13:44.865Z,5.40
2018-01-16T18:16:12.345Z,5.87
2018-01-16T18:18:39.856Z,6.03
2018-01-16T18:21:07.339Z,5.67
2018-01-16T18:23:34.804Z,5.60
2018-01-16T18:26:02.290Z,6.30
2018-01-16T18:28:30.518Z,5.73
2018-01-16T18:30:57.988Z,5.90
2018-01-16T18:33:25.463Z,5.73
2018-01-16T18:35:54.253Z,6.00
2018-01-16T18:38:21.746Z,4.97
2018-01-16T18:40:49.236Z,5.43
2018-01-16T18:43:17.472Z,5.63
2018-01-16T18:45:44.933Z,5.20
2018-01-16T18:48:12.399Z,5.20
2018-01-16T18:50:39.874Z,5.40
2018-01-16T18:53:07.335Z,5.40
2018-01-16T18:55:34.798Z,9.10
2018-01-16T18:58:02.286Z,8.13
2018-01-16T19:00:30.518Z,5.20
2018-01-16T19:02:57.996Z,6.57
2018-01-16T19:05:25.473Z,5.20
2018-01-16T19:07:53.702Z,5.07
2018-01-16T19:10:21.190Z,11.10
2018-01-16T19:12:48.665Z,8.03
2018-01-16T19:15:16.910Z,8.53
2018-01-16T19:17:44.377Z,9.10
2018-01-16T19:20:12.619Z,9.70
2018-01-16T19:22:40.900Z,8.17
2018-01-16T19:25:08.382Z,5.90
2018-01-16T19:27:35.833Z,9.97
2018-01-16T19:30:03.382Z,5.80
2018-01-16T19:32:30.866Z,5.07
2018-01-16T19:34:59.122Z,5.10
2018-01-16T19:37:26.609Z,4.47
2018-01-16T19:39:54.963Z,4.63
2018-01-16T19:42:22.450Z,4.60
2018-01-16T19:44:50.032Z,5.20
2018-01-16T19:47:17.571Z,5.27
2018-01-16T19:49:45.789Z,4.30
2018-01-16T19:52:13.281Z,4.80
2018-01-16T19:54:41.319Z,4.47
2018-01-16T19:57:09.258Z,4.30
2018-01-16T19:59:36.747Z,4.97
2018-01-16T20:02:04.237Z,3.70
2018-01-16T20:04:32.453Z,3.50
2018-01-16T20:06:59.938Z,3.83
2018-01-16T20:09:27.418Z,4.27
2018-01-16T20:11:54.890Z,4.77
2018-01-16T20:14:23.175Z,5.00
2018-01-16T20:16:51.390Z,3.50
2018-01-16T20:19:18.859Z,4.03
2018-01-16T20:21:46.322Z,3.90
2018-01-16T20:24:13.802Z,4.13
2018-01-16T20:26:42.046Z,4.30
2018-01-16T20:29:09.577Z,4.30
2018-01-16T20:31:37.950Z,4.93
2018-01-16T20:34:05.420Z,3.63
2018-01-16T20:36:32.901Z,4.30
2018-01-16T20:39:00.370Z,5.07
2018-01-16T20:41:27.849Z,4.53
2018-01-16T20:43:56.065Z,4.20
2018-01-16T20:46:23.518Z,4.87
2018-01-16T20:48:50.991Z,3.93
2018-01-16T20:51:18.457Z,3.90
2018-01-16T20:53:45.922Z,4.00
2018-01-16T20:56:13.398Z,4.00
2018-01-16T20:58:41.646Z,4.20
2018-01-16T21:01:09.913Z,3.93
2018-01-16T21:03:37.382Z,5.03
2018-01-16T21:06:04.850Z,4.53
2018-01-16T21:08:33.096Z,4.13
2018-01-16T21:11:00.585Z,3.20
2018-01-16T21:13:29.103Z,3.53
2018-01-16T21:15:56.621Z,4.20
2018-01-16T21:18:24.885Z,4.87
2018-01-16T21:20:52.343Z,4.70
2018-01-16T21:23:20.590Z,4.20
2018-01-16T21:25:48.077Z,3.90
2018-01-16T21:28:16.341Z,4.33
2018-01-16T21:30:43.845Z,4.97
2018-01-16T21:33:11.299Z,3.93
2018-01-16T21:35:39.434Z,3.50
2018-01-16T21:38:06.907Z,3.47
2018-01-16T21:40:35.149Z,3.63
2018-01-16T21:43:02.629Z,3.63
2018-01-16T21:45:30.102Z,3.90
2018-01-16T21:47:58.343Z,3.37
2018-01-16T21:50:25.806Z,3.17
2018-01-16T21:52:54.050Z,3.07
2018-01-16T21:55:21.508Z,2.97
2018-01-16T21:57:48.988Z,4.40
2018-01-16T22:00:16.446Z,3.50
2018-01-16T22:02:44.694Z,4.00
2018-01-16T22:05:12.195Z,4.13
2018-01-16T22:07:39.696Z,4.20
2018-01-16T22:10:07.158Z,3.87
2018-01-16T22:12:34.625Z,8.40
2018-01-16T22:15:02.116Z,13.50
2018-01-16T22:17:29.665Z,10.03
2018-01-16T22:19:57.181Z,11.80
2018-01-16T22:22:24.640Z,7.80
2018-01-16T22:24:52.113Z,9.70
2018-01-16T22:27:19.589Z,7.60
2018-01-16T22:29:48.570Z,4.30
2018-01-16T22:32:16.030Z,5.77
2018-01-16T22:34:43.514Z,5.87
2018-01-16T22:37:11.737Z,9.40
2018-01-16T22:39:39.217Z,5.93
2018-01-16T22:42:06.688Z,8.17
2018-01-16T22:44:34.134Z,11.17
2018-01-16T22:47:01.661Z,6.50
2018-01-16T22:49:29.125Z,13.83
2018-01-16T22:51:56.606Z,21.23
2018-01-16T22:54:24.088Z,6.03
2018-01-16T22:56:52.339Z,7.20
2018-01-16T22:59:19.819Z,6.10
2018-01-16T23:01:48.045Z,13.83
2018-01-16T23:04:15.526Z,19.60
2018-01-16T23:06:43.054Z,8.83
2018-01-16T23:09:10.519Z,3.13
2018-01-16T23:11:37.978Z,3.50
2018-01-16T23:14:05.445Z,2.60
2018-01-16T23:16:32.905Z,3.13
2018-01-16T23:19:00.844Z,3.20
2018-01-16T23:21:28.295Z,3.23
2018-01-16T23:23:55.754Z,2.70
2018-01-16T23:26:23.230Z,3.33
2018-01-16T23:28:50.683Z,2.60
2018-01-16T23:31:18.132Z,3.10
2018-01-16T23:33:45.620Z,2.97
2018-01-16T23:36:13.077Z,2.63
2018-01-16T23:38:40.545Z,2.47
2018-01-16T23:41:08.789Z,3.00
2018-01-16T23:43:36.245Z,2.80
2018-01-16T23:46:03.729Z,2.57
2018-01-16T23:48:31.190Z,3.17
2018-01-16T23:50:59.438Z,2.90
2018-01-16T23:53:26.891Z,2.50
2018-01-16T23:55:54.375Z,2.80
2018-01-16T23:58:21.838Z,2.97
